sensor_id;sensor_type;location;lat;lon;timestamp;pressure;altitude;pressure_sealevel;temperature;humidity
81162;BME280;70638;-33.792;151.032;2024-02-26T00:00:33;100775.58;;;27.35;85.23
81162;BME280;70638;-33.792;151.032;2024-02-26T00:03:03;100771.56;;;27.60;85.78
81162;BME280;70638;-33.792;151.032;2024-02-26T00:05:34;100779.14;;;27.52;80.30
81162;BME280;70638;-33.792;151.032;2024-02-26T00:08:04;100778.53;;;27.82;80.36
81162;BME280;70638;-33.792;151.032;2024-02-26T00:10:34;100784.35;;;27.51;81.64
81162;BME280;70638;-33.792;151.032;2024-02-26T00:13:05;100783.47;;;27.59;82.15
81162;BME280;70638;-33.792;151.032;2024-02-26T00:15:38;100785.84;;;27.62;81.24
81162;BME280;70638;-33.792;151.032;2024-02-26T00:18:07;100782.65;;;27.87;79.73
81162;BME280;70638;-33.792;151.032;2024-02-26T00:20:41;100786.17;;;28.17;80.08
81162;BME280;70638;-33.792;151.032;2024-02-26T00:23:17;100802.74;;;27.92;76.28
81162;BME280;70638;-33.792;151.032;2024-02-26T00:25:46;100833.97;;;28.12;79.94
81162;BME280;70638;-33.792;151.032;2024-02-26T00:28:09;100830.64;;;28.21;77.11
81162;BME280;70638;-33.792;151.032;2024-02-26T00:31:04;100818.75;;;28.16;77.48
81162;BME280;70638;-33.792;151.032;2024-02-26T00:33:11;100822.13;;;28.25;76.34
81162;BME280;70638;-33.792;151.032;2024-02-26T00:35:47;100831.82;;;28.54;75.55
81162;BME280;70638;-33.792;151.032;2024-02-26T00:38:12;100822.77;;;28.79;75.61
81162;BME280;70638;-33.792;151.032;2024-02-26T00:40:43;100823.43;;;29.30;72.91
81162;BME280;70638;-33.792;151.032;2024-02-26T00:43:13;100833.92;;;29.03;71.08
81162;BME280;70638;-33.792;151.032;2024-02-26T00:45:44;100825.43;;;29.00;65.76
81162;BME280;70638;-33.792;151.032;2024-02-26T00:48:16;100822.28;;;29.02;64.28
81162;BME280;70638;-33.792;151.032;2024-02-26T00:50:46;100838.02;;;28.72;63.97
81162;BME280;70638;-33.792;151.032;2024-02-26T00:53:16;100837.37;;;28.85;68.57
81162;BME280;70638;-33.792;151.032;2024-02-26T00:55:46;100833.41;;;28.84;65.89
81162;BME280;70638;-33.792;151.032;2024-02-26T00:58:18;100833.32;;;28.86;69.82
81162;BME280;70638;-33.792;151.032;2024-02-26T01:00:47;100850.27;;;28.67;74.48
81162;BME280;70638;-33.792;151.032;2024-02-26T01:03:18;100841.39;;;28.38;80.11
81162;BME280;70638;-33.792;151.032;2024-02-26T01:05:48;100843.23;;;28.44;80.02
81162;BME280;70638;-33.792;151.032;2024-02-26T01:08:19;100840.17;;;28.27;80.18
81162;BME280;70638;-33.792;151.032;2024-02-26T01:10:50;100842.61;;;28.29;79.26
81162;BME280;70638;-33.792;151.032;2024-02-26T01:13:21;100855.02;;;27.96;78.17
81162;BME280;70638;-33.792;151.032;2024-02-26T01:15:51;100864.86;;;27.34;80.00
81162;BME280;70638;-33.792;151.032;2024-02-26T01:18:22;100869.47;;;27.08;78.59
81162;BME280;70638;-33.792;151.032;2024-02-26T01:20:53;100861.88;;;26.91;81.10
81162;BME280;70638;-33.792;151.032;2024-02-26T01:23:23;100862.81;;;26.81;82.09
81162;BME280;70638;-33.792;151.032;2024-02-26T01:25:54;100855.20;;;26.79;83.18
81162;BME280;70638;-33.792;151.032;2024-02-26T01:28:25;100857.98;;;27.17;83.26
81162;BME280;70638;-33.792;151.032;2024-02-26T01:30:56;100855.67;;;27.29;83.00
81162;BME280;70638;-33.792;151.032;2024-02-26T01:33:26;100864.83;;;27.53;82.74
81162;BME280;70638;-33.792;151.032;2024-02-26T01:35:57;100862.73;;;27.19;81.41
81162;BME280;70638;-33.792;151.032;2024-02-26T01:38:28;100872.43;;;27.18;82.29
81162;BME280;70638;-33.792;151.032;2024-02-26T01:40:59;100867.73;;;26.85;82.58
81162;BME280;70638;-33.792;151.032;2024-02-26T01:43:34;100864.48;;;26.78;82.48
81162;BME280;70638;-33.792;151.032;2024-02-26T01:46:00;100870.90;;;26.75;82.86
81162;BME280;70638;-33.792;151.032;2024-02-26T01:48:31;100867.91;;;26.87;79.58
81162;BME280;70638;-33.792;151.032;2024-02-26T01:51:04;100860.55;;;26.79;80.79
81162;BME280;70638;-33.792;151.032;2024-02-26T01:53:39;100873.64;;;26.90;81.77
81162;BME280;70638;-33.792;151.032;2024-02-26T01:56:02;100865.02;;;27.05;82.75
81162;BME280;70638;-33.792;151.032;2024-02-26T01:58:34;100866.61;;;27.54;83.90
81162;BME280;70638;-33.792;151.032;2024-02-26T02:01:03;100865.67;;;27.48;80.06
81162;BME280;70638;-33.792;151.032;2024-02-26T02:03:33;100861.80;;;27.63;79.11
81162;BME280;70638;-33.792;151.032;2024-02-26T02:06:06;100858.50;;;27.71;77.34
81162;BME280;70638;-33.792;151.032;2024-02-26T02:08:35;100872.61;;;27.33;76.65
81162;BME280;70638;-33.792;151.032;2024-02-26T02:11:05;100876.36;;;27.23;76.82
81162;BME280;70638;-33.792;151.032;2024-02-26T02:13:36;100874.53;;;27.13;78.29
81162;BME280;70638;-33.792;151.032;2024-02-26T02:16:07;100896.70;;;26.90;79.26
81162;BME280;70638;-33.792;151.032;2024-02-26T02:18:40;100888.27;;;27.06;79.78
81162;BME280;70638;-33.792;151.032;2024-02-26T02:21:08;100875.38;;;27.25;80.80
81162;BME280;70638;-33.792;151.032;2024-02-26T02:23:38;100864.66;;;27.43;80.73
81162;BME280;70638;-33.792;151.032;2024-02-26T02:26:14;100871.23;;;27.53;76.22
81162;BME280;70638;-33.792;151.032;2024-02-26T02:28:41;100865.44;;;27.39;76.08
81162;BME280;70638;-33.792;151.032;2024-02-26T02:31:11;100861.91;;;27.63;75.21
81162;BME280;70638;-33.792;151.032;2024-02-26T02:33:41;100869.72;;;27.80;76.14
81162;BME280;70638;-33.792;151.032;2024-02-26T02:36:13;100871.47;;;27.93;72.95
81162;BME280;70638;-33.792;151.032;2024-02-26T02:38:49;100875.25;;;27.31;73.33
81162;BME280;70638;-33.792;151.032;2024-02-26T02:41:12;100875.39;;;26.92;73.28
81162;BME280;70638;-33.792;151.032;2024-02-26T02:43:42;100872.80;;;26.94;76.05
81162;BME280;70638;-33.792;151.032;2024-02-26T02:46:14;100867.08;;;26.97;76.27
81162;BME280;70638;-33.792;151.032;2024-02-26T02:48:43;100871.73;;;27.05;75.78
81162;BME280;70638;-33.792;151.032;2024-02-26T02:51:17;100861.73;;;27.16;77.16
81162;BME280;70638;-33.792;151.032;2024-02-26T02:53:50;100864.11;;;26.98;77.73
81162;BME280;70638;-33.792;151.032;2024-02-26T02:56:16;100873.38;;;26.87;80.17
81162;BME280;70638;-33.792;151.032;2024-02-26T02:58:45;100882.28;;;26.94;80.75
81162;BME280;70638;-33.792;151.032;2024-02-26T03:01:16;100885.95;;;26.99;81.18
81162;BME280;70638;-33.792;151.032;2024-02-26T03:03:47;100877.75;;;26.76;84.34
81162;BME280;70638;-33.792;151.032;2024-02-26T03:06:18;100884.68;;;26.71;82.76
81162;BME280;70638;-33.792;151.032;2024-02-26T03:08:49;100891.09;;;26.66;81.58
81162;BME280;70638;-33.792;151.032;2024-02-26T03:11:20;100881.67;;;26.75;82.32
81162;BME280;70638;-33.792;151.032;2024-02-26T03:14:01;100869.57;;;26.71;81.00
81162;BME280;70638;-33.792;151.032;2024-02-26T03:16:20;100878.69;;;26.93;81.48
81162;BME280;70638;-33.792;151.032;2024-02-26T03:18:51;100881.70;;;26.53;80.50
81162;BME280;70638;-33.792;151.032;2024-02-26T03:21:24;100864.73;;;26.31;82.53
81162;BME280;70638;-33.792;151.032;2024-02-26T03:23:51;100862.58;;;26.58;83.89
81162;BME280;70638;-33.792;151.032;2024-02-26T03:26:26;100862.14;;;26.78;84.47
81162;BME280;70638;-33.792;151.032;2024-02-26T03:28:53;100863.98;;;26.23;84.02
81162;BME280;70638;-33.792;151.032;2024-02-26T03:31:26;100861.88;;;26.08;84.81
81162;BME280;70638;-33.792;151.032;2024-02-26T03:33:54;100860.64;;;26.32;84.29
81162;BME280;70638;-33.792;151.032;2024-02-26T03:36:31;100858.54;;;26.19;85.25
81162;BME280;70638;-33.792;151.032;2024-02-26T03:38:55;100861.46;;;26.51;85.04
81162;BME280;70638;-33.792;151.032;2024-02-26T03:41:30;100863.59;;;26.41;83.42
81162;BME280;70638;-33.792;151.032;2024-02-26T03:43:56;100856.65;;;26.20;83.98
81162;BME280;70638;-33.792;151.032;2024-02-26T03:46:26;100862.43;;;26.17;85.03
81162;BME280;70638;-33.792;151.032;2024-02-26T03:48:57;100854.53;;;26.23;85.96
81162;BME280;70638;-33.792;151.032;2024-02-26T03:51:35;100842.03;;;26.41;85.17
81162;BME280;70638;-33.792;151.032;2024-02-26T03:53:59;100847.99;;;26.61;87.62
81162;BME280;70638;-33.792;151.032;2024-02-26T03:56:30;100847.33;;;26.54;87.54
81162;BME280;70638;-33.792;151.032;2024-02-26T03:59:04;100854.66;;;26.67;85.67
81162;BME280;70638;-33.792;151.032;2024-02-26T04:01:31;100840.77;;;26.08;87.21
81162;BME280;70638;-33.792;151.032;2024-02-26T04:04:02;100844.40;;;26.13;87.93
81162;BME280;70638;-33.792;151.032;2024-02-26T04:06:33;100845.12;;;25.95;88.29
81162;BME280;70638;-33.792;151.032;2024-02-26T04:09:06;100838.62;;;26.01;89.14
81162;BME280;70638;-33.792;151.032;2024-02-26T04:11:34;100847.91;;;25.75;89.44
81162;BME280;70638;-33.792;151.032;2024-02-26T04:14:06;100848.56;;;25.71;90.22
81162;BME280;70638;-33.792;151.032;2024-02-26T04:16:35;100847.66;;;25.51;91.81
81162;BME280;70638;-33.792;151.032;2024-02-26T04:19:06;100851.66;;;25.51;93.66
81162;BME280;70638;-33.792;151.032;2024-02-26T04:21:37;100849.41;;;25.54;93.16
81162;BME280;70638;-33.792;151.032;2024-02-26T04:24:16;100849.53;;;25.41;93.31
81162;BME280;70638;-33.792;151.032;2024-02-26T04:26:38;100848.20;;;25.37;94.78
81162;BME280;70638;-33.792;151.032;2024-02-26T04:29:09;100854.09;;;25.33;96.14
81162;BME280;70638;-33.792;151.032;2024-02-26T04:31:40;100842.27;;;25.29;96.69
81162;BME280;70638;-33.792;151.032;2024-02-26T04:34:11;100849.99;;;25.30;96.64
81162;BME280;70638;-33.792;151.032;2024-02-26T04:36:42;100842.71;;;25.12;97.50
81162;BME280;70638;-33.792;151.032;2024-02-26T04:39:13;100847.28;;;25.39;96.63
81162;BME280;70638;-33.792;151.032;2024-02-26T04:41:42;100845.44;;;25.45;97.47
81162;BME280;70638;-33.792;151.032;2024-02-26T04:44:13;100841.12;;;25.38;98.62
81162;BME280;70638;-33.792;151.032;2024-02-26T04:46:44;100848.70;;;25.27;98.70
81162;BME280;70638;-33.792;151.032;2024-02-26T04:49:14;100839.89;;;25.12;99.16
81162;BME280;70638;-33.792;151.032;2024-02-26T04:51:53;100837.98;;;25.08;99.30
81162;BME280;70638;-33.792;151.032;2024-02-26T04:54:18;100845.17;;;25.30;99.93
81162;BME280;70638;-33.792;151.032;2024-02-26T04:56:46;100852.56;;;25.28;99.23
81162;BME280;70638;-33.792;151.032;2024-02-26T04:59:17;100835.84;;;25.44;100.00
81162;BME280;70638;-33.792;151.032;2024-02-26T05:02:05;100833.16;;;25.56;98.34
81162;BME280;70638;-33.792;151.032;2024-02-26T05:04:18;100836.29;;;25.46;98.45
81162;BME280;70638;-33.792;151.032;2024-02-26T05:07:01;100840.78;;;25.77;97.74
81162;BME280;70638;-33.792;151.032;2024-02-26T05:09:19;100834.55;;;25.85;98.36
81162;BME280;70638;-33.792;151.032;2024-02-26T05:11:50;100828.74;;;25.96;98.58
81162;BME280;70638;-33.792;151.032;2024-02-26T05:14:21;100829.79;;;25.66;98.55
81162;BME280;70638;-33.792;151.032;2024-02-26T05:16:52;100833.81;;;25.35;98.33
81162;BME280;70638;-33.792;151.032;2024-02-26T05:19:23;100836.28;;;25.16;98.38
81162;BME280;70638;-33.792;151.032;2024-02-26T05:21:54;100835.46;;;25.35;99.49
81162;BME280;70638;-33.792;151.032;2024-02-26T05:24:33;100836.44;;;25.34;98.98
81162;BME280;70638;-33.792;151.032;2024-02-26T05:26:56;100840.27;;;25.43;97.64
81162;BME280;70638;-33.792;151.032;2024-02-26T05:29:31;100840.47;;;25.39;98.09
81162;BME280;70638;-33.792;151.032;2024-02-26T05:31:57;100834.22;;;25.33;97.95
81162;BME280;70638;-33.792;151.032;2024-02-26T05:34:28;100842.61;;;25.35;97.38
81162;BME280;70638;-33.792;151.032;2024-02-26T05:37:08;100841.17;;;25.31;98.12
81162;BME280;70638;-33.792;151.032;2024-02-26T05:39:29;100848.33;;;25.09;97.06
81162;BME280;70638;-33.792;151.032;2024-02-26T05:42:00;100845.58;;;25.09;98.31
81162;BME280;70638;-33.792;151.032;2024-02-26T05:44:31;100856.58;;;24.94;97.99
81162;BME280;70638;-33.792;151.032;2024-02-26T05:47:02;100853.83;;;25.12;98.25
81162;BME280;70638;-33.792;151.032;2024-02-26T05:49:37;100857.38;;;25.29;98.88
81162;BME280;70638;-33.792;151.032;2024-02-26T05:52:04;100855.81;;;25.15;98.69
81162;BME280;70638;-33.792;151.032;2024-02-26T05:54:34;100859.67;;;25.19;100.00
81162;BME280;70638;-33.792;151.032;2024-02-26T05:57:05;100869.86;;;25.01;99.99
81162;BME280;70638;-33.792;151.032;2024-02-26T05:59:36;100878.98;;;24.79;100.00
81162;BME280;70638;-33.792;151.032;2024-02-26T06:02:06;100877.88;;;24.90;100.00
81162;BME280;70638;-33.792;151.032;2024-02-26T06:04:43;100872.30;;;25.00;100.00
81162;BME280;70638;-33.792;151.032;2024-02-26T06:07:08;100886.00;;;24.96;100.00
81162;BME280;70638;-33.792;151.032;2024-02-26T06:09:39;100889.38;;;24.87;100.00
81162;BME280;70638;-33.792;151.032;2024-02-26T06:12:10;100900.05;;;24.71;100.00
81162;BME280;70638;-33.792;151.032;2024-02-26T06:14:44;100893.04;;;24.50;100.00
81162;BME280;70638;-33.792;151.032;2024-02-26T06:17:11;100892.67;;;24.38;100.00
81162;BME280;70638;-33.792;151.032;2024-02-26T06:19:41;100897.52;;;24.21;100.00
81162;BME280;70638;-33.792;151.032;2024-02-26T06:22:15;100894.42;;;24.13;100.00
81162;BME280;70638;-33.792;151.032;2024-02-26T06:24:51;100901.56;;;24.04;100.00
81162;BME280;70638;-33.792;151.032;2024-02-26T06:27:13;100898.52;;;24.08;100.00
81162;BME280;70638;-33.792;151.032;2024-02-26T06:29:44;100906.23;;;23.93;100.00
81162;BME280;70638;-33.792;151.032;2024-02-26T06:32:15;100911.28;;;24.01;100.00
81162;BME280;70638;-33.792;151.032;2024-02-26T06:34:59;100918.14;;;24.07;100.00
81162;BME280;70638;-33.792;151.032;2024-02-26T06:37:19;100917.57;;;23.89;100.00
81162;BME280;70638;-33.792;151.032;2024-02-26T06:39:46;100919.08;;;23.79;100.00
81162;BME280;70638;-33.792;151.032;2024-02-26T06:42:17;100922.34;;;23.79;100.00
81162;BME280;70638;-33.792;151.032;2024-02-26T06:44:48;100925.91;;;23.69;100.00
81162;BME280;70638;-33.792;151.032;2024-02-26T06:47:19;100930.88;;;23.59;100.00
81162;BME280;70638;-33.792;151.032;2024-02-26T06:49:50;100942.35;;;23.47;100.00
81162;BME280;70638;-33.792;151.032;2024-02-26T06:52:21;100945.48;;;23.41;100.00
81162;BME280;70638;-33.792;151.032;2024-02-26T06:54:55;100944.39;;;23.45;100.00
81162;BME280;70638;-33.792;151.032;2024-02-26T06:57:22;100944.19;;;23.28;100.00
81162;BME280;70638;-33.792;151.032;2024-02-26T06:59:53;100959.31;;;23.24;100.00
81162;BME280;70638;-33.792;151.032;2024-02-26T07:02:24;100967.66;;;23.11;100.00
81162;BME280;70638;-33.792;151.032;2024-02-26T07:04:54;100959.68;;;23.04;100.00
81162;BME280;70638;-33.792;151.032;2024-02-26T07:07:33;100970.78;;;23.02;100.00
81162;BME280;70638;-33.792;151.032;2024-02-26T07:09:55;100965.48;;;22.97;100.00
81162;BME280;70638;-33.792;151.032;2024-02-26T07:12:26;100976.91;;;23.00;100.00
81162;BME280;70638;-33.792;151.032;2024-02-26T07:14:57;100979.98;;;22.96;100.00
81162;BME280;70638;-33.792;151.032;2024-02-26T07:17:27;100981.23;;;22.90;100.00
81162;BME280;70638;-33.792;151.032;2024-02-26T07:20:02;100985.94;;;22.93;100.00
81162;BME280;70638;-33.792;151.032;2024-02-26T07:22:28;100986.84;;;22.87;100.00
81162;BME280;70638;-33.792;151.032;2024-02-26T07:24:59;100990.39;;;22.91;100.00
81162;BME280;70638;-33.792;151.032;2024-02-26T07:27:30;101003.54;;;22.89;100.00
81162;BME280;70638;-33.792;151.032;2024-02-26T07:30:08;101009.61;;;22.83;100.00
81162;BME280;70638;-33.792;151.032;2024-02-26T07:32:31;101009.28;;;22.81;100.00
81162;BME280;70638;-33.792;151.032;2024-02-26T07:35:02;101011.91;;;22.79;100.00
81162;BME280;70638;-33.792;151.032;2024-02-26T07:37:38;101004.69;;;22.79;100.00
81162;BME280;70638;-33.792;151.032;2024-02-26T07:40:07;101007.09;;;22.80;100.00
81162;BME280;70638;-33.792;151.032;2024-02-26T07:42:34;101009.59;;;22.82;100.00
81162;BME280;70638;-33.792;151.032;2024-02-26T07:45:07;101018.16;;;22.83;100.00
81162;BME280;70638;-33.792;151.032;2024-02-26T07:47:38;101009.94;;;22.70;100.00
81162;BME280;70638;-33.792;151.032;2024-02-26T07:50:08;101004.16;;;22.68;100.00
81162;BME280;70638;-33.792;151.032;2024-02-26T07:52:36;101013.84;;;22.68;100.00
81162;BME280;70638;-33.792;151.032;2024-02-26T07:55:07;101014.78;;;22.68;100.00
81162;BME280;70638;-33.792;151.032;2024-02-26T07:57:40;101018.09;;;22.69;100.00
81162;BME280;70638;-33.792;151.032;2024-02-26T08:00:15;101023.05;;;22.66;100.00
81162;BME280;70638;-33.792;151.032;2024-02-26T08:02:43;101025.42;;;22.72;100.00
81162;BME280;70638;-33.792;151.032;2024-02-26T08:05:11;101027.43;;;22.69;100.00
81162;BME280;70638;-33.792;151.032;2024-02-26T08:07:39;101030.69;;;22.69;100.00
81162;BME280;70638;-33.792;151.032;2024-02-26T08:10:10;101038.17;;;22.70;100.00
81162;BME280;70638;-33.792;151.032;2024-02-26T08:12:41;101037.88;;;22.62;100.00
81162;BME280;70638;-33.792;151.032;2024-02-26T08:15:11;101049.83;;;22.56;100.00
81162;BME280;70638;-33.792;151.032;2024-02-26T08:17:49;101036.20;;;22.51;100.00
81162;BME280;70638;-33.792;151.032;2024-02-26T08:20:12;101039.89;;;22.52;100.00
81162;BME280;70638;-33.792;151.032;2024-02-26T08:22:42;101047.30;;;22.53;100.00
81162;BME280;70638;-33.792;151.032;2024-02-26T08:25:13;101050.91;;;22.49;100.00
81162;BME280;70638;-33.792;151.032;2024-02-26T08:27:43;101056.70;;;22.46;100.00
81162;BME280;70638;-33.792;151.032;2024-02-26T08:30:15;101062.49;;;22.42;100.00
81162;BME280;70638;-33.792;151.032;2024-02-26T08:32:48;101072.41;;;22.39;100.00
81162;BME280;70638;-33.792;151.032;2024-02-26T08:35:14;101081.73;;;22.40;100.00
81162;BME280;70638;-33.792;151.032;2024-02-26T08:37:47;101081.03;;;22.37;100.00
81162;BME280;70638;-33.792;151.032;2024-02-26T08:40:15;101090.89;;;22.36;100.00
81162;BME280;70638;-33.792;151.032;2024-02-26T08:42:46;101091.45;;;22.35;100.00
81162;BME280;70638;-33.792;151.032;2024-02-26T08:45:19;101090.59;;;22.35;100.00
81162;BME280;70638;-33.792;151.032;2024-02-26T08:47:47;101101.47;;;22.35;100.00
81162;BME280;70638;-33.792;151.032;2024-02-26T08:50:18;101100.84;;;22.36;100.00
81162;BME280;70638;-33.792;151.032;2024-02-26T08:52:53;101093.36;;;22.33;100.00
81162;BME280;70638;-33.792;151.032;2024-02-26T08:55:19;101103.39;;;22.31;100.00
81162;BME280;70638;-33.792;151.032;2024-02-26T08:57:50;101108.56;;;22.30;100.00
81162;BME280;70638;-33.792;151.032;2024-02-26T09:00:23;101115.28;;;22.28;100.00
81162;BME280;70638;-33.792;151.032;2024-02-26T09:02:52;101121.53;;;22.24;100.00
81162;BME280;70638;-33.792;151.032;2024-02-26T09:05:28;101127.45;;;22.24;100.00
81162;BME280;70638;-33.792;151.032;2024-02-26T09:07:57;101129.96;;;22.22;100.00
81162;BME280;70638;-33.792;151.032;2024-02-26T09:10:28;101138.52;;;22.21;100.00
81162;BME280;70638;-33.792;151.032;2024-02-26T09:12:54;101135.83;;;22.19;100.00
81162;BME280;70638;-33.792;151.032;2024-02-26T09:15:25;101136.48;;;22.20;100.00
81162;BME280;70638;-33.792;151.032;2024-02-26T09:17:56;101144.05;;;22.17;100.00
81162;BME280;70638;-33.792;151.032;2024-02-26T09:20:29;101151.23;;;22.17;100.00
81162;BME280;70638;-33.792;151.032;2024-02-26T09:23:02;101153.91;;;22.17;100.00
81162;BME280;70638;-33.792;151.032;2024-02-26T09:25:27;101160.69;;;22.16;100.00
81162;BME280;70638;-33.792;151.032;2024-02-26T09:28:01;101165.39;;;22.15;100.00
81162;BME280;70638;-33.792;151.032;2024-02-26T09:30:36;101163.70;;;22.14;100.00
81162;BME280;70638;-33.792;151.032;2024-02-26T09:33:01;101169.92;;;22.17;100.00
81162;BME280;70638;-33.792;151.032;2024-02-26T09:35:29;101174.64;;;22.16;100.00
81162;BME280;70638;-33.792;151.032;2024-02-26T09:37:59;101184.05;;;22.17;100.00
81162;BME280;70638;-33.792;151.032;2024-02-26T09:40:30;101196.84;;;22.14;100.00
81162;BME280;70638;-33.792;151.032;2024-02-26T09:43:10;101190.86;;;22.08;100.00
81162;BME280;70638;-33.792;151.032;2024-02-26T09:45:33;101190.38;;;22.00;100.00
81162;BME280;70638;-33.792;151.032;2024-02-26T09:48:03;101197.44;;;21.98;100.00
81162;BME280;70638;-33.792;151.032;2024-02-26T09:50:39;101197.78;;;21.97;100.00
81162;BME280;70638;-33.792;151.032;2024-02-26T09:53:06;101196.95;;;22.01;100.00
81162;BME280;70638;-33.792;151.032;2024-02-26T09:55:33;101194.01;;;22.04;100.00
81162;BME280;70638;-33.792;151.032;2024-02-26T09:58:05;101190.99;;;22.06;100.00
81162;BME280;70638;-33.792;151.032;2024-02-26T10:00:38;101191.08;;;22.05;100.00
81162;BME280;70638;-33.792;151.032;2024-02-26T10:03:07;101194.19;;;22.03;100.00
81162;BME280;70638;-33.792;151.032;2024-02-26T10:05:37;101192.67;;;22.02;100.00
81162;BME280;70638;-33.792;151.032;2024-02-26T10:08:08;101190.11;;;22.02;100.00
81162;BME280;70638;-33.792;151.032;2024-02-26T10:10:38;101191.56;;;22.01;100.00
81162;BME280;70638;-33.792;151.032;2024-02-26T10:13:13;101190.98;;;22.00;100.00
81162;BME280;70638;-33.792;151.032;2024-02-26T10:15:38;101190.06;;;21.99;100.00
81162;BME280;70638;-33.792;151.032;2024-02-26T10:18:09;101202.87;;;22.01;100.00
81162;BME280;70638;-33.792;151.032;2024-02-26T10:20:40;101218.34;;;22.02;100.00
81162;BME280;70638;-33.792;151.032;2024-02-26T10:23:10;101218.55;;;21.99;100.00
81162;BME280;70638;-33.792;151.032;2024-02-26T10:25:53;101220.48;;;22.02;100.00
81162;BME280;70638;-33.792;151.032;2024-02-26T10:28:10;101229.95;;;22.00;100.00
81162;BME280;70638;-33.792;151.032;2024-02-26T10:30:41;101227.59;;;21.97;100.00
81162;BME280;70638;-33.792;151.032;2024-02-26T10:33:17;101234.87;;;21.92;100.00
81162;BME280;70638;-33.792;151.032;2024-02-26T10:35:47;101236.66;;;21.92;100.00
81162;BME280;70638;-33.792;151.032;2024-02-26T10:38:23;101232.88;;;21.93;100.00
81162;BME280;70638;-33.792;151.032;2024-02-26T10:40:43;101242.03;;;21.93;100.00
81162;BME280;70638;-33.792;151.032;2024-02-26T10:43:14;101240.45;;;21.96;100.00
81162;BME280;70638;-33.792;151.032;2024-02-26T10:45:45;101244.88;;;21.98;100.00
81162;BME280;70638;-33.792;151.032;2024-02-26T10:48:15;101247.52;;;21.99;100.00
81162;BME280;70638;-33.792;151.032;2024-02-26T10:50:46;101255.23;;;21.97;100.00
81162;BME280;70638;-33.792;151.032;2024-02-26T10:53:23;101265.46;;;21.96;100.00
81162;BME280;70638;-33.792;151.032;2024-02-26T10:56:04;101260.75;;;21.96;100.00
81162;BME280;70638;-33.792;151.032;2024-02-26T10:58:24;101267.11;;;21.93;100.00
81162;BME280;70638;-33.792;151.032;2024-02-26T11:00:51;101266.76;;;21.94;100.00
81162;BME280;70638;-33.792;151.032;2024-02-26T11:03:22;101262.65;;;21.94;100.00
81162;BME280;70638;-33.792;151.032;2024-02-26T11:05:52;101268.16;;;21.93;100.00
81162;BME280;70638;-33.792;151.032;2024-02-26T11:08:22;101269.70;;;21.91;100.00
81162;BME280;70638;-33.792;151.032;2024-02-26T11:10:52;101262.58;;;21.93;100.00
81162;BME280;70638;-33.792;151.032;2024-02-26T11:13:21;101257.02;;;21.93;100.00
81162;BME280;70638;-33.792;151.032;2024-02-26T11:15:55;101261.31;;;21.91;100.00
81162;BME280;70638;-33.792;151.032;2024-02-26T11:18:25;101259.88;;;21.92;100.00
81162;BME280;70638;-33.792;151.032;2024-02-26T11:20:52;101254.04;;;21.91;100.00
81162;BME280;70638;-33.792;151.032;2024-02-26T11:23:22;101259.09;;;21.92;100.00
81162;BME280;70638;-33.792;151.032;2024-02-26T11:25:54;101256.83;;;21.94;100.00
81162;BME280;70638;-33.792;151.032;2024-02-26T11:28:28;101259.66;;;21.94;100.00
81162;BME280;70638;-33.792;151.032;2024-02-26T11:31:06;101249.25;;;21.92;100.00
81162;BME280;70638;-33.792;151.032;2024-02-26T11:33:25;101249.59;;;21.92;100.00
81162;BME280;70638;-33.792;151.032;2024-02-26T11:35:56;101252.50;;;21.91;100.00
81162;BME280;70638;-33.792;151.032;2024-02-26T11:38:27;101247.33;;;21.89;100.00
81162;BME280;70638;-33.792;151.032;2024-02-26T11:40:58;101246.09;;;21.85;100.00
81162;BME280;70638;-33.792;151.032;2024-02-26T11:43:50;101248.14;;;21.83;100.00
81162;BME280;70638;-33.792;151.032;2024-02-26T11:46:01;101249.62;;;21.83;100.00
81162;BME280;70638;-33.792;151.032;2024-02-26T11:48:29;101254.14;;;21.83;100.00
81162;BME280;70638;-33.792;151.032;2024-02-26T11:50:58;101252.12;;;21.82;100.00
81162;BME280;70638;-33.792;151.032;2024-02-26T11:53:30;101252.82;;;21.81;100.00
81162;BME280;70638;-33.792;151.032;2024-02-26T11:56:23;101247.59;;;21.80;100.00
81162;BME280;70638;-33.792;151.032;2024-02-26T11:58:32;101252.17;;;21.79;100.00
81162;BME280;70638;-33.792;151.032;2024-02-26T12:03:36;101260.47;;;21.72;100.00
81162;BME280;70638;-33.792;151.032;2024-02-26T12:06:04;101267.16;;;21.69;100.00
81162;BME280;70638;-33.792;151.032;2024-02-26T12:08:35;101264.80;;;21.67;100.00
81162;BME280;70638;-33.792;151.032;2024-02-26T12:11:04;101265.58;;;21.66;100.00
81162;BME280;70638;-33.792;151.032;2024-02-26T12:13:34;101272.37;;;21.64;100.00
81162;BME280;70638;-33.792;151.032;2024-02-26T12:16:05;101286.49;;;21.64;100.00
81162;BME280;70638;-33.792;151.032;2024-02-26T12:18:35;101283.16;;;21.63;100.00
81162;BME280;70638;-33.792;151.032;2024-02-26T12:21:05;101280.25;;;21.63;100.00
81162;BME280;70638;-33.792;151.032;2024-02-26T12:23:38;101281.45;;;21.63;100.00
81162;BME280;70638;-33.792;151.032;2024-02-26T12:26:06;101277.16;;;21.62;100.00
81162;BME280;70638;-33.792;151.032;2024-02-26T12:28:36;101278.56;;;21.61;100.00
81162;BME280;70638;-33.792;151.032;2024-02-26T12:31:07;101281.52;;;21.57;100.00
81162;BME280;70638;-33.792;151.032;2024-02-26T12:33:38;101281.17;;;21.57;100.00